createdAt,value
2022-11-16T00:01:41.072Z,93098.63
2022-11-16T00:04:09.012Z,93082.34
2022-11-16T00:06:35.427Z,93083.06
2022-11-16T00:09:20.787Z,93072.56
2022-11-16T00:11:49.228Z,93054.78
2022-11-16T00:14:15.661Z,93044.25
2022-11-16T00:16:42.135Z,93055.44
2022-11-16T00:19:10.126Z,93096.31
2022-11-16T00:21:36.485Z,93170.16
2022-11-16T00:24:03.209Z,93264.88
2022-11-16T00:26:29.734Z,93385.16
2022-11-16T00:28:56.276Z,93460.91
2022-11-16T00:31:22.773Z,93579.41
2022-11-16T00:33:49.304Z,93674.25
2022-11-16T00:36:15.831Z,93743.38
2022-11-16T00:38:42.604Z,93848.66
2022-11-16T00:41:09.493Z,93926.22
2022-11-16T00:43:36.338Z,93975.25
2022-11-16T00:46:02.859Z,94027.50
2022-11-16T00:48:29.231Z,94026.28
2022-11-16T00:50:55.601Z,94003.38
2022-11-16T00:53:21.975Z,93943.09
2022-11-16T00:55:48.371Z,93877.19
2022-11-16T00:58:14.961Z,93835.81
2022-11-16T01:00:41.485Z,93849.06
2022-11-16T01:03:07.912Z,93866.34
2022-11-16T01:05:34.310Z,93904.13
2022-11-16T01:08:00.669Z,93919.16
2022-11-16T01:10:27.421Z,93890.84
2022-11-16T01:12:54.081Z,93842.63
2022-11-16T01:15:21.243Z,93799.25
2022-11-16T01:17:47.678Z,93810.09
2022-11-16T01:20:17.008Z,93817.09
2022-11-16T01:22:43.418Z,93768.28
2022-11-16T01:25:10.539Z,93725.31
2022-11-16T01:27:37.220Z,93730.91
2022-11-16T01:30:04.730Z,93699.19
2022-11-16T01:32:31.084Z,93699.19
2022-11-16T01:34:57.443Z,93757.84
2022-11-16T01:37:23.836Z,93816.50
2022-11-16T01:39:50.538Z,93867.75
2022-11-16T01:42:20.888Z,93906.13
2022-11-16T01:44:47.244Z,93977.06
2022-11-16T01:47:15.505Z,94016.25
2022-11-16T01:49:44.512Z,94006.22
2022-11-16T01:52:13.530Z,93982.06
2022-11-16T01:54:41.708Z,93960.38
2022-11-16T01:57:09.399Z,94016.66
2022-11-16T01:59:35.837Z,94052.81
2022-11-16T02:02:02.336Z,94109.13
2022-11-16T02:04:28.752Z,94148.09
2022-11-16T02:07:14.087Z,94169.00
2022-11-16T02:10:08.568Z,94171.44
2022-11-16T02:12:50.333Z,94171.00
2022-11-16T02:15:37.345Z,94162.56
2022-11-16T02:18:20.301Z,94148.69
2022-11-16T02:21:36.109Z,94154.13
2022-11-16T02:24:22.656Z,94171.41
2022-11-16T02:27:01.196Z,94168.56
2022-11-16T02:29:43.869Z,94143.63
2022-11-16T02:32:29.940Z,94162.72
2022-11-16T02:35:07.432Z,94152.09
2022-11-16T02:37:36.020Z,94189.03
2022-11-16T02:40:06.296Z,94202.94
2022-11-16T02:42:35.016Z,94209.13
2022-11-16T02:45:01.374Z,94206.28
2022-11-16T02:47:30.390Z,94214.53
2022-11-16T02:49:59.481Z,94209.03
2022-11-16T02:52:25.845Z,94220.13
2022-11-16T02:54:52.181Z,94241.38
2022-11-16T02:57:39.688Z,94260.06
2022-11-16T03:00:07.199Z,94274.09
2022-11-16T03:02:39.826Z,94240.72
2022-11-16T03:05:09.796Z,94238.69
2022-11-16T03:07:44.252Z,94248.34
2022-11-16T03:10:10.832Z,94264.00
2022-11-16T03:12:37.216Z,94274.00
2022-11-16T03:15:05.432Z,94268.75
2022-11-16T03:17:33.690Z,94259.31
2022-11-16T03:20:09.603Z,94253.50
2022-11-16T03:22:57.060Z,94253.50
2022-11-16T03:25:23.418Z,94260.69
2022-11-16T03:27:49.804Z,94229.94
2022-11-16T03:30:22.419Z,94203.22
2022-11-16T03:33:10.837Z,94184.75
2022-11-16T03:35:57.525Z,94146.59
2022-11-16T03:38:24.784Z,94107.44
2022-11-16T03:40:51.176Z,94098.75
2022-11-16T03:43:17.645Z,94077.88
2022-11-16T03:45:44.021Z,94085.09
2022-11-16T03:48:10.831Z,94101.94
2022-11-16T03:50:37.376Z,94108.97
2022-11-16T03:53:03.742Z,94079.84
2022-11-16T03:55:30.175Z,94069.59
2022-11-16T03:57:56.576Z,94074.59
2022-11-16T04:00:22.959Z,94038.06
2022-11-16T04:02:49.345Z,94010.34
2022-11-16T04:05:34.335Z,93969.75
2022-11-16T04:08:19.129Z,93916.75
2022-11-16T04:11:03.802Z,93847.09
2022-11-16T04:13:49.858Z,93799.56
2022-11-16T04:16:34.942Z,93734.16
2022-11-16T04:19:19.974Z,93704.03
2022-11-16T04:22:10.563Z,93673.16
2022-11-16T04:24:38.334Z,93629.84
2022-11-16T04:27:25.828Z,93609.94
2022-11-16T04:29:52.199Z,93606.16
2022-11-16T04:32:37.284Z,93596.94
2022-11-16T04:35:22.266Z,93571.66
2022-11-16T04:37:48.650Z,93538.78
2022-11-16T04:40:16.226Z,93504.69
2022-11-16T04:42:42.607Z,93499.09
2022-11-16T04:45:27.529Z,93495.06
2022-11-16T04:47:54.016Z,93502.66
2022-11-16T04:50:20.519Z,93495.84
2022-11-16T04:52:49.893Z,93491.44
2022-11-16T04:55:16.403Z,93486.63
2022-11-16T04:57:42.763Z,93488.66
2022-11-16T05:00:09.844Z,93495.84
2022-11-16T05:02:36.291Z,93510.28
2022-11-16T05:05:02.746Z,93522.31
2022-11-16T05:07:29.365Z,93520.09
2022-11-16T05:09:55.811Z,93495.25
2022-11-16T05:12:26.478Z,93474.81
2022-11-16T05:14:53.466Z,93449.38
2022-11-16T05:17:19.830Z,93420.09
2022-11-16T05:20:04.680Z,93424.13
2022-11-16T05:22:31.167Z,93418.31
2022-11-16T05:24:57.555Z,93397.47
2022-11-16T05:27:24.377Z,93398.69
2022-11-16T05:29:50.799Z,93362.03
2022-11-16T05:32:17.686Z,93364.03
2022-11-16T05:34:44.091Z,93378.44
2022-11-16T05:37:10.735Z,93358.03
2022-11-16T05:39:37.160Z,93358.22
2022-11-16T05:42:03.817Z,93369.03
2022-11-16T05:44:30.207Z,93377.03
2022-11-16T05:46:56.633Z,93382.06
2022-11-16T05:49:23.200Z,93371.03
2022-11-16T05:51:49.648Z,93377.66
2022-11-16T05:54:20.604Z,93366.03
2022-11-16T05:56:47.815Z,93344.41
2022-11-16T05:59:18.532Z,93331.56
2022-11-16T06:01:45.154Z,93324.38
2022-11-16T06:04:11.641Z,93329.19
2022-11-16T06:06:38.115Z,93320.75
2022-11-16T06:09:04.511Z,93305.94
2022-11-16T06:11:35.526Z,93302.53
2022-11-16T06:14:02.581Z,93296.94
2022-11-16T06:16:29.036Z,93295.53
2022-11-16T06:18:55.398Z,93294.16
2022-11-16T06:21:21.813Z,93288.53
2022-11-16T06:23:48.224Z,93284.13
2022-11-16T06:26:14.598Z,93304.78
2022-11-16T06:28:40.978Z,93296.75
2022-11-16T06:31:07.373Z,93311.59
2022-11-16T06:33:34.059Z,93339.00
2022-11-16T06:36:00.532Z,93370.06
2022-11-16T06:38:27.210Z,93403.31
2022-11-16T06:40:54.924Z,93427.72
2022-11-16T06:43:21.637Z,93463.00
2022-11-16T06:45:52.387Z,93502.81
2022-11-16T06:48:18.906Z,93549.84
2022-11-16T06:50:45.455Z,93598.31
2022-11-16T06:53:11.804Z,93625.94
2022-11-16T06:55:38.166Z,93661.75
2022-11-16T06:58:04.585Z,93702.94
2022-11-16T07:00:31.067Z,93728.00
2022-11-16T07:02:57.473Z,93760.84
2022-11-16T07:05:23.830Z,93777.63
2022-11-16T07:07:54.215Z,93800.88
2022-11-16T07:10:20.640Z,93815.25
2022-11-16T07:12:46.998Z,93821.19
2022-11-16T07:15:13.371Z,93840.16
2022-11-16T07:17:39.877Z,93838.16
2022-11-16T07:20:06.730Z,93837.19
2022-11-16T07:22:33.104Z,93847.72
2022-11-16T07:24:59.457Z,93813.13
2022-11-16T07:27:26.211Z,93835.50
2022-11-16T07:29:52.555Z,93833.34
2022-11-16T07:32:18.933Z,93838.78
2022-11-16T07:34:45.269Z,93815.97
2022-11-16T07:37:11.612Z,93807.56
2022-11-16T07:39:38.017Z,93809.13
2022-11-16T07:42:04.551Z,93802.72
2022-11-16T07:44:31.003Z,93814.75
2022-11-16T07:46:57.341Z,93828.75
2022-11-16T07:49:23.711Z,93844.75
2022-11-16T07:51:50.054Z,93862.22
2022-11-16T07:54:16.518Z,93866.78
2022-11-16T07:56:42.947Z,93854.41
2022-11-16T07:59:09.445Z,93845.25
2022-11-16T08:01:35.924Z,93850.81
2022-11-16T08:04:02.644Z,93862.47
2022-11-16T08:06:30.338Z,93850.44
2022-11-16T08:08:58.946Z,93838.03
2022-11-16T08:11:25.613Z,93828.63
2022-11-16T08:13:52.008Z,93830.03
2022-11-16T08:16:19.976Z,93816.84
2022-11-16T08:18:46.806Z,93816.66
2022-11-16T08:21:14.576Z,93829.28
2022-11-16T08:23:41.106Z,93847.31
2022-11-16T08:26:09.394Z,93874.34
2022-11-16T08:28:36.404Z,93893.00
2022-11-16T08:31:16.673Z,93889.03
2022-11-16T08:33:43.042Z,93891.06
2022-11-16T08:36:14.169Z,93916.47
2022-11-16T08:38:40.906Z,93929.13
2022-11-16T08:41:07.337Z,93912.31
2022-11-16T08:43:33.886Z,93909.91
2022-11-16T08:46:00.578Z,93905.13
2022-11-16T08:48:27.003Z,93879.09
2022-11-16T08:51:16.290Z,93862.63
2022-11-16T08:53:40.039Z,93833.41
2022-11-16T08:56:08.725Z,93827.19
2022-11-16T08:58:36.131Z,93802.16
2022-11-16T09:01:10.047Z,93780.97
2022-11-16T09:03:37.981Z,93756.97
2022-11-16T09:06:04.773Z,93727.31
2022-11-16T09:08:31.547Z,93688.47
2022-11-16T09:10:58.207Z,93631.22
2022-11-16T09:13:25.208Z,93612.34
2022-11-16T09:15:58.441Z,93594.75
2022-11-16T09:18:25.130Z,93551.88
2022-11-16T09:20:51.667Z,93498.22
2022-11-16T09:23:23.755Z,93454.56
2022-11-16T09:25:51.572Z,93413.72
2022-11-16T09:28:18.284Z,93365.66
2022-11-16T09:30:45.129Z,93328.78
2022-11-16T09:33:11.685Z,93308.41
2022-11-16T09:35:38.123Z,93288.16
2022-11-16T09:38:04.504Z,93239.69
2022-11-16T09:40:35.289Z,93229.88
2022-11-16T09:43:46.290Z,93217.88
2022-11-16T09:46:31.602Z,93215.25
2022-11-16T09:48:58.571Z,93199.81
2022-11-16T09:51:25.334Z,93190.03
2022-11-16T09:54:05.955Z,93183.78
2022-11-16T09:56:35.207Z,93176.56
2022-11-16T09:59:07.796Z,93170.56
2022-11-16T10:01:45.492Z,93192.19
2022-11-16T10:04:43.579Z,93194.00
2022-11-16T10:07:17.156Z,93188.97
2022-11-16T10:09:43.754Z,93204.22
2022-11-16T10:12:13.197Z,93195.41
2022-11-16T10:15:01.674Z,93185.00
2022-11-16T10:17:47.175Z,93180.63
2022-11-16T10:20:45.465Z,93187.41
2022-11-16T10:23:46.239Z,93176.56
2022-11-16T10:26:45.012Z,93167.78
2022-11-16T10:29:17.394Z,93187.63
2022-11-16T10:31:46.714Z,93172.16
2022-11-16T10:34:22.668Z,93153.75
2022-11-16T10:36:49.051Z,93150.13
2022-11-16T10:39:17.099Z,93150.13
2022-11-16T10:41:44.947Z,93149.53
2022-11-16T10:44:31.641Z,93127.31
2022-11-16T10:47:23.096Z,93124.09
2022-11-16T10:49:51.796Z,93056.75
2022-11-16T10:52:18.165Z,93038.34
2022-11-16T10:54:44.759Z,93009.69
2022-11-16T10:57:14.282Z,92988.66
2022-11-16T10:59:45.348Z,92959.38
2022-11-16T11:02:20.811Z,92956.19
2022-11-16T11:05:00.291Z,92854.84
2022-11-16T11:07:33.999Z,92845.66
2022-11-16T11:10:00.434Z,92812.97
2022-11-16T11:12:39.152Z,92696.94
2022-11-16T11:15:11.695Z,92530.72
2022-11-16T11:17:43.130Z,92537.16
2022-11-16T11:20:15.553Z,92499.03
2022-11-16T11:22:48.991Z,92466.22
2022-11-16T11:25:26.382Z,92441.75
2022-11-16T11:28:05.669Z,92454.66
2022-11-16T11:30:32.045Z,92432.25
2022-11-16T11:32:58.425Z,92427.81
2022-11-16T11:35:31.625Z,92413.44
2022-11-16T11:38:07.238Z,92414.47
2022-11-16T11:40:34.273Z,92414.34
2022-11-16T11:43:01.608Z,92404.97
2022-11-16T11:45:33.490Z,92379.16
2022-11-16T11:48:06.751Z,92362.75
2022-11-16T11:50:52.254Z,92346.44
2022-11-16T11:53:34.044Z,92318.03
2022-11-16T11:56:00.635Z,92315.09
2022-11-16T11:58:32.436Z,92303.91
2022-11-16T12:01:26.846Z,92294.41
2022-11-16T12:03:59.218Z,92250.25
2022-11-16T12:06:55.036Z,92221.03
2022-11-16T12:09:40.624Z,92166.97
2022-11-16T12:12:19.195Z,92142.50
2022-11-16T12:15:04.376Z,92125.78
2022-11-16T12:17:49.397Z,92105.25
2022-11-16T12:20:46.103Z,92067.47
2022-11-16T12:23:19.415Z,92065.81
2022-11-16T12:26:09.122Z,92049.19
2022-11-16T12:28:51.051Z,92001.31
2022-11-16T12:31:40.615Z,91956.84
2022-11-16T12:34:13.343Z,91942.25
2022-11-16T12:37:05.571Z,91922.16
2022-11-16T12:39:39.638Z,91921.03
2022-11-16T12:42:21.680Z,91895.34
2022-11-16T12:45:09.796Z,91858.91
2022-11-16T12:48:18.126Z,91842.50
2022-11-16T12:50:58.018Z,91772.50
2022-11-16T12:53:30.381Z,91729.59
2022-11-16T12:56:09.283Z,91701.22
2022-11-16T12:58:48.008Z,91697.50
2022-11-16T13:01:18.574Z,91669.66
2022-11-16T13:03:50.808Z,91652.47
2022-11-16T13:06:19.861Z,91650.44
2022-11-16T13:09:03.182Z,91660.22
2022-11-16T13:11:35.993Z,91637.91
2022-11-16T13:14:07.728Z,91628.53
2022-11-16T13:16:34.236Z,91612.94
2022-11-16T13:19:00.716Z,91600.16
2022-11-16T13:21:27.123Z,91547.31
2022-11-16T13:24:05.706Z,91505.69
2022-11-16T13:26:40.413Z,91480.47
2022-11-16T13:29:22.573Z,91460.94
2022-11-16T13:31:57.796Z,91468.19
2022-11-16T13:34:26.135Z,91463.50
2022-11-16T13:36:52.474Z,91447.38
2022-11-16T13:39:22.668Z,91440.38
2022-11-16T13:42:06.446Z,91454.19
2022-11-16T13:44:32.845Z,91426.13
2022-11-16T13:47:04.334Z,91433.38
2022-11-16T13:49:32.216Z,91417.53
2022-11-16T13:52:21.943Z,91405.28
2022-11-16T13:54:53.860Z,91389.16
2022-11-16T13:57:27.297Z,91381.88
2022-11-16T14:00:07.903Z,91360.81
2022-11-16T14:02:41.254Z,91351.69
2022-11-16T14:05:37.814Z,91330.09
2022-11-16T14:08:19.447Z,91329.59
2022-11-16T14:10:48.948Z,91311.63
2022-11-16T14:13:30.440Z,91304.88
2022-11-16T14:16:15.360Z,91202.63
2022-11-16T14:18:42.320Z,90502.66
2022-11-16T14:21:11.833Z,89842.19
2022-11-16T14:23:53.411Z,89502.53
2022-11-16T14:26:22.318Z,89415.94
2022-11-16T14:29:26.409Z,89398.97
2022-11-16T14:31:54.751Z,89417.66
2022-11-16T14:34:29.425Z,89492.59
2022-11-16T14:36:56.004Z,89526.88
2022-11-16T14:39:37.887Z,89563.28
2022-11-16T14:42:18.733Z,89599.50
2022-11-16T14:44:45.096Z,89661.72
2022-11-16T14:47:31.058Z,89683.47
2022-11-16T14:49:57.454Z,89724.63
2022-11-16T14:52:44.803Z,89739.72
2022-11-16T14:55:19.942Z,89755.31
2022-11-16T14:57:46.654Z,89767.25
2022-11-16T15:00:24.324Z,89774.97
2022-11-16T15:03:00.899Z,89792.69
2022-11-16T15:05:33.477Z,89817.72
2022-11-16T15:07:59.943Z,89832.25
2022-11-16T15:10:27.470Z,89848.94
2022-11-16T15:12:54.301Z,89861.94
2022-11-16T15:15:30.215Z,89868.19
2022-11-16T15:17:59.603Z,89895.81
2022-11-16T15:20:27.669Z,89916.72
2022-11-16T15:22:55.566Z,89919.03
2022-11-16T15:25:45.285Z,89929.72
2022-11-16T15:28:15.524Z,89939.63
2022-11-16T15:30:41.869Z,89960.44
2022-11-16T15:33:10.291Z,89969.78
2022-11-16T15:35:37.222Z,89993.19
2022-11-16T15:38:06.655Z,89998.38
2022-11-16T15:40:33.549Z,90013.47
2022-11-16T15:43:00.711Z,90008.78
2022-11-16T15:45:27.053Z,90024.38
2022-11-16T15:47:53.814Z,90013.97
2022-11-16T15:50:23.067Z,90040.81
2022-11-16T15:52:54.530Z,90061.91
2022-11-16T15:55:21.842Z,90074.94
2022-11-16T15:58:26.478Z,90092.13
2022-11-16T16:00:53.111Z,90095.97
2022-11-16T16:03:29.120Z,90111.84
2022-11-16T16:05:55.688Z,90116.00
2022-11-16T16:08:28.258Z,90128.50
2022-11-16T16:11:04.383Z,90127.19
2022-11-16T16:13:41.885Z,90126.38
2022-11-16T16:16:17.437Z,90134.19
2022-11-16T16:18:43.831Z,90144.59
2022-11-16T16:21:10.540Z,90161.25
2022-11-16T16:23:53.696Z,90155.50
2022-11-16T16:26:20.519Z,90172.13
2022-11-16T16:28:46.999Z,90186.69
2022-11-16T16:31:14.352Z,90191.91
2022-11-16T16:33:40.863Z,90208.03
2022-11-16T16:36:08.058Z,90207.50
2022-11-16T16:38:34.411Z,90214.78
2022-11-16T16:41:02.553Z,90221.53
2022-11-16T16:43:29.332Z,90232.50
2022-11-16T16:45:55.793Z,90238.19
2022-11-16T16:48:22.319Z,90242.09
2022-11-16T16:50:48.726Z,90249.63
2022-11-16T16:53:15.173Z,90261.56
2022-11-16T16:55:42.017Z,90266.78
2022-11-16T16:58:11.319Z,90265.44
2022-11-16T17:00:37.692Z,90245.44
2022-11-16T17:03:04.135Z,90243.31
2022-11-16T17:05:32.681Z,90241.22
2022-11-16T17:07:59.048Z,90225.06
2022-11-16T17:10:25.405Z,90250.84
2022-11-16T17:12:57.736Z,90261.78
2022-11-16T17:15:24.213Z,90255.25
2022-11-16T17:17:50.846Z,90267.78
2022-11-16T17:20:17.392Z,90269.31
2022-11-16T17:22:43.890Z,90293.56
2022-11-16T17:25:10.581Z,90306.81
2022-11-16T17:27:37.045Z,90307.56
2022-11-16T17:30:04.149Z,90324.50
2022-11-16T17:32:30.520Z,90330.50
2022-11-16T17:34:56.879Z,90325.06
2022-11-16T17:37:23.234Z,90315.69
2022-11-16T17:39:49.599Z,90306.03
2022-11-16T17:42:15.991Z,90300.09
2022-11-16T17:44:42.350Z,90241.84
2022-11-16T17:47:09.080Z,90225.19
2022-11-16T17:49:35.448Z,90216.88
2022-11-16T17:52:02.199Z,90211.69
2022-11-16T17:54:28.579Z,90182.03
2022-11-16T17:56:54.956Z,90180.50
2022-11-16T17:59:26.389Z,90171.63
2022-11-16T18:01:55.598Z,90171.97
2022-11-16T18:04:21.989Z,90157.09
2022-11-16T18:06:48.406Z,90135.25
2022-11-16T18:09:14.834Z,90118.09
2022-11-16T18:11:41.566Z,90111.91
2022-11-16T18:14:08.029Z,90095.75
2022-11-16T18:16:34.597Z,89951.75
2022-11-16T18:19:05.143Z,89925.44
2022-11-16T18:21:33.612Z,89914.75
2022-11-16T18:24:00.289Z,89909.56
2022-11-16T18:26:26.754Z,89905.94
2022-11-16T18:28:53.843Z,89908.59
2022-11-16T18:31:21.904Z,89902.63
2022-11-16T18:33:51.446Z,89906.06
2022-11-16T18:36:18.661Z,89910.78
2022-11-16T18:38:45.477Z,89908.19
2022-11-16T18:41:11.823Z,89931.66
2022-11-16T18:43:54.791Z,89916.06
2022-11-16T18:46:25.615Z,89920.56
2022-11-16T18:48:52.257Z,89922.19
2022-11-16T18:51:18.907Z,89946.72
2022-11-16T18:53:45.382Z,89928.16
2022-11-16T18:56:11.904Z,89948.53
2022-11-16T18:58:54.092Z,89944.88
2022-11-16T19:01:22.360Z,89946.97
2022-11-16T19:03:48.936Z,89959.50
2022-11-16T19:06:17.069Z,89965.72
2022-11-16T19:08:43.666Z,89976.69
2022-11-16T19:11:14.930Z,89986.56
2022-11-16T19:13:42.559Z,90006.38
2022-11-16T19:16:09.707Z,90010.03
2022-11-16T19:18:36.605Z,90014.69
2022-11-16T19:21:03.912Z,90025.63
2022-11-16T19:23:30.635Z,90008.91
2022-11-16T19:26:01.647Z,90017.28
2022-11-16T19:28:28.041Z,90042.25
2022-11-16T19:30:54.431Z,90069.84
2022-11-16T19:33:20.795Z,90063.59
2022-11-16T19:35:47.142Z,90077.16
2022-11-16T19:38:13.500Z,90100.59
2022-11-16T19:40:39.863Z,90083.88
2022-11-16T19:43:06.269Z,90092.50
2022-11-16T19:45:32.631Z,90095.38
2022-11-16T19:47:59.006Z,90096.94
2022-11-16T19:50:25.416Z,90105.25
2022-11-16T19:52:51.820Z,90127.63
2022-11-16T19:55:18.219Z,90122.44
2022-11-16T19:57:44.595Z,90146.34
2022-11-16T20:00:11.552Z,90166.66
2022-11-16T20:02:38.646Z,90176.50
2022-11-16T20:05:05.477Z,90176.50
2022-11-16T20:07:31.944Z,90182.19
2022-11-16T20:09:58.452Z,90198.28
2022-11-16T20:12:24.905Z,90205.06
2022-11-16T20:14:51.377Z,90222.44
2022-11-16T20:17:17.774Z,90227.38
2022-11-16T20:19:44.157Z,90260.13
2022-11-16T20:22:10.893Z,90282.00
2022-11-16T20:24:37.281Z,90292.88
2022-11-16T20:27:03.681Z,90322.00
2022-11-16T20:29:30.039Z,90330.28
2022-11-16T20:31:56.437Z,90360.16
2022-11-16T20:34:22.896Z,90380.66
2022-11-16T20:36:50.770Z,90410.03
2022-11-16T20:39:18.838Z,90409.22
2022-11-16T20:41:45.435Z,90424.28
2022-11-16T20:44:16.512Z,90441.97
2022-11-16T20:46:44.234Z,90464.81
2022-11-16T20:49:10.966Z,90481.19
2022-11-16T20:51:37.388Z,90501.16
2022-11-16T20:54:03.918Z,90521.94
2022-11-16T20:56:30.383Z,90527.41
2022-11-16T20:58:58.099Z,90548.44
2022-11-16T21:01:28.851Z,90564.50
2022-11-16T21:03:56.224Z,90581.66
2022-11-16T21:06:22.642Z,90607.34
2022-11-16T21:08:49.121Z,90626.31
2022-11-16T21:11:17.178Z,90625.25
2022-11-16T21:14:03.883Z,90622.66
2022-11-16T21:16:30.341Z,90632.56
2022-11-16T21:18:56.726Z,90641.91
2022-11-16T21:21:23.105Z,90656.44
2022-11-16T21:23:52.437Z,90685.53
2022-11-16T21:26:20.293Z,90687.09
2022-11-16T21:28:46.684Z,90701.63
2022-11-16T21:31:17.735Z,90710.97
2022-11-16T21:33:44.745Z,90734.84
2022-11-16T21:36:12.663Z,90739.53
2022-11-16T21:38:39.183Z,90751.47
2022-11-16T21:41:06.351Z,90773.81
2022-11-16T21:43:37.075Z,90802.91
2022-11-16T21:46:05.471Z,90825.75
2022-11-16T21:48:35.037Z,90850.69
2022-11-16T21:51:02.764Z,90892.22
2022-11-16T21:53:29.379Z,90897.44
2022-11-16T21:55:55.754Z,90931.19
2022-11-16T21:58:22.175Z,90945.22
2022-11-16T22:00:48.608Z,90962.34
2022-11-16T22:03:15.209Z,90997.66
2022-11-16T22:06:00.317Z,91013.72
2022-11-16T22:08:26.692Z,91020.47
2022-11-16T22:10:53.205Z,91057.88
2022-11-16T22:13:19.821Z,91075.00
2022-11-16T22:15:46.247Z,91104.09
2022-11-16T22:18:13.365Z,91138.59
2022-11-16T22:20:39.988Z,91164.28
2022-11-16T22:23:06.333Z,91183.78
2022-11-16T22:25:32.847Z,91189.25
2022-11-16T22:28:19.593Z,91194.44
2022-11-16T22:30:51.226Z,91206.91
2022-11-16T22:33:18.230Z,91207.19
2022-11-16T22:35:46.640Z,91231.81
2022-11-16T22:38:13.038Z,91266.56
2022-11-16T22:40:39.410Z,91283.72
2022-11-16T22:43:05.737Z,91315.34
2022-11-16T22:45:32.127Z,91330.94
2022-11-16T22:47:58.504Z,91352.50
2022-11-16T22:50:24.889Z,91369.63
2022-11-16T22:52:51.276Z,91395.31
2022-11-16T22:55:17.691Z,91417.88
2022-11-16T22:57:44.045Z,91429.59
2022-11-16T23:00:10.922Z,91439.97
2022-11-16T23:02:37.298Z,91473.19
2022-11-16T23:05:03.913Z,91484.13
2022-11-16T23:07:30.351Z,91513.19
2022-11-16T23:09:56.741Z,91539.16
2022-11-16T23:12:41.703Z,91579.09
2022-11-16T23:15:28.345Z,91603.19
2022-11-16T23:17:54.799Z,91620.31
2022-11-16T23:20:39.718Z,91639.06
2022-11-16T23:23:24.342Z,91672.56
2022-11-16T23:26:09.050Z,91692.25
2022-11-16T23:28:35.452Z,91697.75
2022-11-16T23:31:01.801Z,91707.34
2022-11-16T23:33:46.347Z,91744.19
2022-11-16T23:36:12.823Z,91785.06
2022-11-16T23:38:39.447Z,91810.34
2022-11-16T23:41:24.897Z,91806.81
2022-11-16T23:44:00.576Z,91823.63
2022-11-16T23:46:27.989Z,91837.16
2022-11-16T23:48:54.510Z,91874.44
2022-11-16T23:51:23.157Z,91887.97
2022-11-16T23:53:52.833Z,91908.75
2022-11-16T23:56:22.438Z,91911.91
2022-11-16T23:58:48.978Z,91917.09
